createdAt,value
2017-12-31T00:00:27.540Z,49.80
2017-12-31T00:01:27.547Z,53.50
2017-12-31T00:02:27.552Z,55.40
2017-12-31T00:03:27.558Z,59.60
2017-12-31T00:04:27.556Z,50.30
2017-12-31T00:05:27.568Z,57.70
2017-12-31T00:06:27.608Z,55.60
2017-12-31T00:07:27.577Z,50.10
2017-12-31T00:08:27.582Z,59.90
2017-12-31T00:09:27.588Z,55.50
2017-12-31T00:10:27.594Z,59.20
2017-12-31T00:11:27.601Z,57.40
2017-12-31T00:12:27.605Z,50.30
2017-12-31T00:13:27.608Z,56.70
2017-12-31T00:14:27.610Z,54.50
2017-12-31T00:15:28.329Z,65.60
2017-12-31T00:16:27.621Z,55.20
2017-12-31T00:17:27.632Z,60.40
2017-12-31T00:18:27.630Z,57.70
2017-12-31T00:19:27.642Z,61.90
2017-12-31T00:20:27.647Z,46.60
2017-12-31T00:21:27.657Z,51.30
2017-12-31T00:22:27.668Z,64.80
2017-12-31T00:23:27.662Z,62.10
2017-12-31T00:24:27.665Z,58.50
2017-12-31T00:25:27.667Z,57.40
2017-12-31T00:26:27.675Z,58.30
2017-12-31T00:27:27.681Z,55.40
2017-12-31T00:28:27.686Z,58.20
2017-12-31T00:29:27.688Z,60.90
2017-12-31T00:30:27.699Z,54.20
2017-12-31T00:31:27.698Z,63.10
2017-12-31T00:32:27.742Z,58.00
2017-12-31T00:33:27.707Z,62.10
2017-12-31T00:34:27.721Z,60.60
2017-12-31T00:35:27.720Z,67.00
2017-12-31T00:36:27.730Z,58.10
2017-12-31T00:37:27.738Z,63.00
2017-12-31T00:38:27.738Z,70.60
2017-12-31T00:39:27.749Z,64.30
2017-12-31T00:40:27.746Z,60.50
2017-12-31T00:41:27.764Z,59.50
2017-12-31T00:42:27.761Z,63.60
2017-12-31T00:43:27.765Z,59.90
2017-12-31T00:44:27.767Z,69.80
2017-12-31T00:45:27.783Z,63.70
2017-12-31T00:46:27.783Z,62.00
2017-12-31T00:47:27.789Z,65.90
2017-12-31T00:48:27.790Z,63.30
2017-12-31T00:49:27.792Z,68.90
2017-12-31T00:50:27.803Z,75.90
2017-12-31T00:51:27.803Z,64.80
2017-12-31T00:52:27.812Z,58.00
2017-12-31T00:53:28.349Z,64.30
2017-12-31T00:54:27.826Z,61.10
2017-12-31T00:55:27.827Z,68.20
2017-12-31T00:56:27.836Z,66.10
2017-12-31T00:57:27.832Z,61.70
2017-12-31T00:58:27.846Z,66.50
2017-12-31T00:59:27.856Z,65.10
2017-12-31T01:00:27.856Z,61.80
2017-12-31T01:01:27.874Z,66.70
2017-12-31T01:02:27.867Z,65.70
2017-12-31T01:03:27.871Z,67.40
2017-12-31T01:04:27.882Z,60.50
2017-12-31T01:05:27.880Z,67.80
2017-12-31T01:06:27.893Z,68.20
2017-12-31T01:07:27.892Z,67.30
2017-12-31T01:08:27.897Z,65.70
2017-12-31T01:09:27.901Z,66.80
2017-12-31T01:10:27.912Z,68.50
2017-12-31T01:11:27.911Z,64.90
2017-12-31T01:12:27.917Z,67.90
2017-12-31T01:13:27.918Z,68.30
2017-12-31T01:14:27.931Z,62.80
2017-12-31T01:15:27.937Z,71.10
2017-12-31T01:16:27.943Z,63.50
2017-12-31T01:17:27.949Z,61.90
2017-12-31T01:18:27.950Z,62.50
2017-12-31T01:19:27.957Z,68.30
2017-12-31T01:20:27.959Z,58.60
2017-12-31T01:21:27.963Z,64.30
2017-12-31T01:22:27.969Z,66.50
2017-12-31T01:23:27.977Z,65.30
2017-12-31T01:24:27.992Z,61.60
2017-12-31T01:25:27.986Z,65.30
2017-12-31T01:26:27.993Z,63.30
2017-12-31T01:27:28.002Z,68.40
2017-12-31T01:28:28.008Z,65.80
2017-12-31T01:29:28.011Z,69.10
2017-12-31T01:30:28.012Z,70.30
2017-12-31T01:31:28.023Z,63.40
2017-12-31T01:32:28.026Z,73.60
2017-12-31T01:33:28.030Z,63.80
2017-12-31T01:34:28.033Z,64.20
2017-12-31T01:35:28.068Z,67.80
2017-12-31T01:36:28.040Z,70.20
2017-12-31T01:37:28.048Z,70.00
2017-12-31T01:38:28.053Z,66.60
2017-12-31T01:39:28.061Z,67.50
2017-12-31T01:40:28.063Z,69.80
2017-12-31T01:41:28.071Z,66.30
2017-12-31T01:42:28.074Z,67.50
2017-12-31T01:43:28.084Z,70.30
2017-12-31T01:44:28.082Z,56.30
2017-12-31T01:45:28.094Z,68.50
2017-12-31T01:46:28.096Z,55.10
2017-12-31T01:47:28.104Z,61.70
2017-12-31T01:48:28.107Z,63.40
2017-12-31T01:49:28.115Z,66.30
2017-12-31T01:50:28.120Z,60.20
2017-12-31T01:51:28.128Z,60.40
2017-12-31T01:52:28.132Z,56.80
2017-12-31T01:53:28.132Z,51.60
2017-12-31T01:54:28.141Z,53.30
2017-12-31T01:55:28.148Z,60.40
2017-12-31T01:56:28.149Z,55.00
2017-12-31T01:57:28.151Z,49.70
2017-12-31T01:58:28.163Z,53.20
2017-12-31T01:59:28.164Z,49.50
2017-12-31T02:00:28.171Z,53.20
2017-12-31T02:01:28.173Z,49.30
2017-12-31T02:02:28.185Z,45.40
2017-12-31T02:03:28.184Z,50.70
2017-12-31T02:04:28.197Z,46.10
2017-12-31T02:05:28.194Z,44.70
2017-12-31T02:06:28.207Z,46.70
2017-12-31T02:07:28.207Z,46.90
2017-12-31T02:08:28.207Z,42.90
2017-12-31T02:09:28.218Z,47.90
2017-12-31T02:10:28.224Z,43.30
2017-12-31T02:11:28.236Z,49.90
2017-12-31T02:12:28.233Z,46.40
2017-12-31T02:13:28.242Z,44.50
2017-12-31T02:14:28.244Z,45.90
2017-12-31T02:15:28.247Z,41.10
2017-12-31T02:16:28.250Z,47.10
2017-12-31T02:17:28.259Z,43.30
2017-12-31T02:18:28.270Z,47.90
2017-12-31T02:19:28.864Z,47.70
2017-12-31T02:20:28.272Z,48.70
2017-12-31T02:21:28.283Z,47.70
2017-12-31T02:22:28.286Z,45.70
2017-12-31T02:23:28.286Z,46.20
2017-12-31T02:24:28.294Z,45.10
2017-12-31T02:25:28.299Z,52.40
2017-12-31T02:26:28.311Z,47.90
2017-12-31T02:27:28.314Z,47.10
2017-12-31T02:28:28.315Z,44.80
2017-12-31T02:29:28.324Z,44.60
2017-12-31T02:30:28.333Z,45.80
2017-12-31T02:31:28.331Z,48.10
2017-12-31T02:32:28.336Z,41.90
2017-12-31T02:33:28.345Z,43.60
2017-12-31T02:34:28.351Z,48.40
2017-12-31T02:35:28.357Z,48.90
2017-12-31T02:36:28.357Z,44.70
2017-12-31T02:37:28.365Z,50.00
2017-12-31T02:38:28.374Z,48.30
2017-12-31T02:39:28.376Z,49.00
2017-12-31T02:40:28.380Z,47.80
2017-12-31T02:41:28.386Z,47.40
2017-12-31T02:42:28.392Z,46.00
2017-12-31T02:43:28.451Z,48.00
2017-12-31T02:44:28.401Z,50.00
2017-12-31T02:45:28.404Z,49.60
2017-12-31T02:46:28.407Z,47.90
2017-12-31T02:47:28.418Z,46.40
2017-12-31T02:48:28.416Z,51.20
2017-12-31T02:49:28.431Z,50.60
2017-12-31T02:50:28.432Z,47.70
2017-12-31T02:51:28.439Z,50.50
2017-12-31T02:52:28.438Z,48.50
2017-12-31T02:53:28.452Z,49.30
2017-12-31T02:54:28.466Z,45.00
2017-12-31T02:55:28.463Z,51.70
2017-12-31T02:56:28.456Z,51.50
2017-12-31T02:57:28.468Z,54.00
2017-12-31T02:58:28.474Z,56.00
2017-12-31T02:59:28.480Z,51.40
2017-12-31T03:00:28.483Z,53.40
2017-12-31T03:01:28.488Z,56.60
2017-12-31T03:02:28.495Z,45.20
2017-12-31T03:03:28.494Z,56.40
2017-12-31T03:04:28.504Z,57.40
2017-12-31T03:05:28.504Z,49.50
2017-12-31T03:06:28.518Z,49.20
2017-12-31T03:07:28.518Z,52.50
2017-12-31T03:08:28.522Z,59.50
2017-12-31T03:09:28.530Z,55.20
2017-12-31T03:10:28.537Z,53.30
2017-12-31T03:11:28.542Z,50.30
2017-12-31T03:12:28.547Z,53.40
2017-12-31T03:13:28.561Z,54.60
2017-12-31T03:14:28.550Z,53.60
2017-12-31T03:15:28.560Z,45.60
2017-12-31T03:16:28.559Z,48.10
2017-12-31T03:17:28.589Z,53.40
2017-12-31T03:18:28.580Z,60.60
2017-12-31T03:19:28.577Z,55.80
2017-12-31T03:20:28.584Z,52.70
2017-12-31T03:21:28.595Z,57.10
2017-12-31T03:22:28.605Z,53.70
2017-12-31T03:23:28.600Z,52.40
2017-12-31T03:24:28.616Z,52.80
2017-12-31T03:25:28.615Z,55.60
2017-12-31T03:26:28.636Z,54.40
2017-12-31T03:27:28.624Z,46.10
2017-12-31T03:28:28.623Z,49.20
2017-12-31T03:29:28.632Z,52.50
2017-12-31T03:30:28.641Z,47.40
2017-12-31T03:31:28.642Z,46.90
2017-12-31T03:32:28.647Z,56.50
2017-12-31T03:33:28.668Z,57.60
2017-12-31T03:34:28.663Z,51.70
2017-12-31T03:35:28.663Z,55.00
2017-12-31T03:36:28.667Z,55.50
2017-12-31T03:37:28.677Z,51.90
2017-12-31T03:38:28.681Z,55.80
2017-12-31T03:39:28.681Z,62.50
2017-12-31T03:40:28.692Z,55.50
2017-12-31T03:41:28.697Z,52.90
2017-12-31T03:42:28.696Z,60.80
2017-12-31T03:43:28.705Z,60.10
2017-12-31T03:44:28.710Z,67.60
2017-12-31T03:45:28.716Z,67.60
2017-12-31T03:46:28.723Z,70.10
2017-12-31T03:47:28.727Z,69.50
2017-12-31T03:48:28.732Z,77.20
2017-12-31T03:49:28.737Z,65.90
2017-12-31T03:50:28.741Z,68.20
2017-12-31T03:51:28.750Z,67.50
2017-12-31T03:52:28.754Z,71.70
2017-12-31T03:53:28.763Z,73.60
2017-12-31T03:54:28.763Z,70.40
2017-12-31T03:55:28.771Z,66.00
2017-12-31T03:56:28.789Z,77.80
2017-12-31T03:57:28.783Z,67.00
2017-12-31T03:58:28.787Z,72.00
2017-12-31T03:59:28.793Z,68.30
2017-12-31T04:00:28.796Z,67.20
2017-12-31T04:01:28.798Z,71.50
2017-12-31T04:02:28.808Z,70.50
2017-12-31T04:03:28.821Z,73.70
2017-12-31T04:04:28.819Z,73.60
2017-12-31T04:05:28.821Z,66.30
2017-12-31T04:06:28.824Z,71.70
2017-12-31T04:07:28.834Z,70.80
2017-12-31T04:08:28.843Z,73.10
2017-12-31T04:09:28.845Z,65.40
2017-12-31T04:10:28.858Z,67.00
2017-12-31T04:11:28.857Z,76.30
2017-12-31T04:12:28.861Z,73.20
2017-12-31T04:13:28.864Z,72.00
2017-12-31T04:14:28.866Z,79.20
2017-12-31T04:15:28.884Z,65.50
2017-12-31T04:16:28.880Z,65.60
2017-12-31T04:17:28.886Z,72.20
2017-12-31T04:18:28.886Z,74.90
2017-12-31T04:19:28.909Z,66.50
2017-12-31T04:20:28.893Z,79.80
2017-12-31T04:21:28.901Z,66.80
2017-12-31T04:22:28.907Z,69.50
2017-12-31T04:23:28.913Z,67.80
2017-12-31T04:24:28.915Z,60.20
2017-12-31T04:25:28.923Z,64.50
2017-12-31T04:26:28.926Z,61.00
2017-12-31T04:27:28.933Z,58.20
2017-12-31T04:28:28.935Z,54.70
2017-12-31T04:29:28.954Z,52.50
2017-12-31T04:30:28.947Z,53.40
2017-12-31T04:31:28.951Z,56.20
2017-12-31T04:32:28.960Z,59.50
2017-12-31T04:33:28.961Z,55.20
2017-12-31T04:34:28.976Z,55.90
2017-12-31T04:35:28.967Z,54.40
2017-12-31T04:36:28.977Z,49.80
2017-12-31T04:37:28.975Z,55.60
2017-12-31T04:38:28.987Z,63.10
2017-12-31T04:39:28.989Z,61.00
2017-12-31T04:40:28.999Z,61.00
2017-12-31T04:41:28.996Z,57.30
2017-12-31T04:42:29.010Z,56.30
2017-12-31T04:43:29.012Z,58.20
2017-12-31T04:44:29.016Z,51.90
2017-12-31T04:45:29.023Z,55.10
2017-12-31T04:46:29.024Z,58.90
2017-12-31T04:47:29.033Z,68.90
2017-12-31T04:48:29.035Z,52.60
2017-12-31T04:49:29.039Z,48.90
2017-12-31T04:50:29.044Z,58.70
2017-12-31T04:51:29.073Z,50.80
2017-12-31T04:52:29.057Z,49.50
2017-12-31T04:53:29.082Z,58.20
2017-12-31T04:54:29.060Z,49.50
2017-12-31T04:55:29.071Z,58.60
2017-12-31T04:56:29.075Z,50.80
2017-12-31T04:57:29.081Z,51.90
2017-12-31T04:58:29.084Z,48.90
2017-12-31T04:59:29.090Z,53.70
2017-12-31T05:00:29.100Z,54.70
2017-12-31T05:01:29.095Z,55.30
2017-12-31T05:02:29.099Z,52.10
2017-12-31T05:03:29.107Z,47.30
2017-12-31T05:04:29.112Z,52.20
2017-12-31T05:05:29.112Z,42.90
2017-12-31T05:06:29.117Z,43.60
2017-12-31T05:07:29.128Z,44.90
2017-12-31T05:08:29.134Z,40.50
2017-12-31T05:09:29.135Z,44.70
2017-12-31T05:10:29.141Z,45.40
2017-12-31T05:11:29.149Z,47.40
2017-12-31T05:12:29.149Z,35.30
2017-12-31T05:13:29.157Z,33.10
2017-12-31T05:14:29.168Z,32.60
2017-12-31T05:15:29.167Z,28.90
2017-12-31T05:16:29.170Z,28.00
2017-12-31T05:17:29.179Z,28.80
2017-12-31T05:18:29.183Z,25.20
2017-12-31T05:19:29.193Z,28.60
2017-12-31T05:20:29.182Z,27.40
2017-12-31T05:21:29.200Z,29.90
2017-12-31T05:22:29.195Z,24.10
2017-12-31T05:23:29.207Z,26.10
2017-12-31T05:24:29.225Z,23.20
2017-12-31T05:25:29.218Z,26.20
2017-12-31T05:26:29.219Z,23.80
2017-12-31T05:27:29.233Z,20.20
2017-12-31T05:28:29.227Z,21.30
2017-12-31T05:29:29.235Z,24.20
2017-12-31T05:30:29.239Z,24.10
2017-12-31T05:31:29.241Z,22.50
2017-12-31T05:32:29.246Z,20.70
2017-12-31T05:33:29.253Z,18.80
2017-12-31T05:34:29.260Z,20.40
2017-12-31T05:35:29.260Z,21.80
2017-12-31T05:36:29.267Z,21.80
2017-12-31T05:37:29.269Z,20.20
2017-12-31T05:38:29.278Z,15.40
2017-12-31T05:39:29.283Z,17.70
2017-12-31T05:40:29.290Z,18.50
2017-12-31T05:41:29.286Z,18.40
2017-12-31T05:42:29.292Z,15.00
2017-12-31T05:43:29.311Z,17.50
2017-12-31T05:44:29.933Z,15.80
2017-12-31T05:45:29.319Z,14.90
2017-12-31T05:46:29.322Z,14.30
2017-12-31T05:47:29.330Z,14.20
2017-12-31T05:48:29.324Z,15.20
2017-12-31T05:49:29.328Z,14.10
2017-12-31T05:50:29.334Z,15.40
2017-12-31T05:51:29.340Z,15.20
2017-12-31T05:52:29.346Z,15.90
2017-12-31T05:53:29.347Z,13.50
2017-12-31T05:54:29.352Z,16.90
2017-12-31T05:55:29.364Z,16.90
2017-12-31T05:56:29.366Z,14.00
2017-12-31T05:57:29.365Z,14.60
2017-12-31T05:58:29.375Z,14.60
2017-12-31T05:59:29.378Z,15.70
2017-12-31T06:00:29.380Z,15.10
2017-12-31T06:01:29.389Z,16.00
2017-12-31T06:02:29.393Z,17.00
2017-12-31T06:03:29.400Z,16.70
2017-12-31T06:04:29.402Z,15.50
2017-12-31T06:05:29.411Z,16.80
2017-12-31T06:06:29.419Z,18.90
2017-12-31T06:07:29.418Z,18.00
2017-12-31T06:08:29.422Z,16.10
2017-12-31T06:09:29.428Z,13.50
2017-12-31T06:10:29.435Z,17.00
2017-12-31T06:11:29.435Z,16.60
2017-12-31T06:12:29.443Z,16.40
2017-12-31T06:13:29.447Z,18.40
2017-12-31T06:14:29.456Z,14.20
2017-12-31T06:15:29.461Z,16.80
2017-12-31T06:16:29.466Z,16.70
2017-12-31T06:17:29.467Z,17.80
2017-12-31T06:18:29.490Z,16.60
2017-12-31T06:19:29.482Z,19.90
2017-12-31T06:20:29.480Z,15.70
2017-12-31T06:21:29.492Z,18.70
2017-12-31T06:22:29.490Z,17.20
2017-12-31T06:23:29.504Z,19.20
2017-12-31T06:24:29.505Z,17.50
2017-12-31T06:25:29.514Z,15.30
2017-12-31T06:26:29.512Z,19.20
2017-12-31T06:27:29.565Z,18.60
2017-12-31T06:28:29.522Z,19.10
2017-12-31T06:29:29.537Z,17.10
2017-12-31T06:30:29.531Z,16.40
2017-12-31T06:31:29.541Z,17.20
2017-12-31T06:32:29.545Z,16.50
2017-12-31T06:33:29.550Z,18.50
2017-12-31T06:34:29.551Z,18.70
2017-12-31T06:35:29.558Z,16.30
2017-12-31T06:36:29.565Z,16.40
2017-12-31T06:37:29.568Z,15.90
2017-12-31T06:38:29.578Z,17.70
2017-12-31T06:39:29.580Z,16.70
2017-12-31T06:40:29.585Z,15.60
2017-12-31T06:41:29.591Z,16.20
2017-12-31T06:42:29.598Z,16.00
2017-12-31T06:43:29.600Z,21.80
2017-12-31T06:44:29.606Z,19.80
2017-12-31T06:45:29.609Z,19.30
2017-12-31T06:46:29.618Z,15.40
2017-12-31T06:47:29.625Z,17.60
2017-12-31T06:48:29.629Z,17.50
2017-12-31T06:49:29.631Z,19.20
2017-12-31T06:50:29.640Z,18.60
2017-12-31T06:51:29.640Z,22.20
2017-12-31T06:52:29.646Z,16.60
2017-12-31T06:53:29.647Z,20.10
2017-12-31T06:54:29.659Z,20.90
2017-12-31T06:55:29.673Z,20.90
2017-12-31T06:56:29.672Z,24.70
2017-12-31T06:57:29.672Z,25.70
2017-12-31T06:58:29.678Z,24.30
2017-12-31T06:59:29.681Z,24.50
2017-12-31T07:00:29.683Z,20.00
2017-12-31T07:01:29.692Z,23.10
2017-12-31T07:02:29.716Z,25.60
2017-12-31T07:03:29.701Z,23.50
2017-12-31T07:04:29.706Z,24.30
2017-12-31T07:05:29.707Z,24.60
2017-12-31T07:06:29.720Z,26.70
2017-12-31T07:07:29.723Z,29.00
2017-12-31T07:08:29.724Z,26.80
2017-12-31T07:09:29.734Z,25.00
2017-12-31T07:10:29.741Z,27.60
2017-12-31T07:11:29.741Z,25.20
2017-12-31T07:12:29.743Z,30.70
2017-12-31T07:13:29.758Z,32.40
2017-12-31T07:14:29.765Z,30.80
2017-12-31T07:15:29.764Z,29.30
2017-12-31T07:16:29.764Z,31.60
2017-12-31T07:17:29.771Z,25.40
2017-12-31T07:18:29.775Z,30.10
2017-12-31T07:19:29.783Z,36.80
2017-12-31T07:20:29.781Z,27.80
2017-12-31T07:21:29.796Z,34.40
2017-12-31T07:22:29.794Z,33.40
2017-12-31T07:23:29.804Z,32.20
2017-12-31T07:24:29.801Z,33.50
2017-12-31T07:25:29.812Z,31.80
2017-12-31T07:26:29.818Z,27.20
2017-12-31T07:27:29.823Z,29.90
2017-12-31T07:28:29.881Z,32.60
2017-12-31T07:29:29.838Z,32.00
2017-12-31T07:30:29.837Z,35.20
2017-12-31T07:31:29.844Z,30.10
2017-12-31T07:32:29.850Z,32.50
2017-12-31T07:33:29.855Z,32.20
2017-12-31T07:34:29.876Z,33.90
2017-12-31T07:35:29.866Z,29.40
2017-12-31T07:36:30.453Z,33.00
2017-12-31T07:37:29.876Z,33.30
2017-12-31T07:38:29.883Z,32.60
2017-12-31T07:39:29.888Z,29.90
2017-12-31T07:40:29.895Z,32.40
2017-12-31T07:41:29.893Z,28.80
2017-12-31T07:42:29.900Z,38.00
2017-12-31T07:43:29.904Z,31.30
2017-12-31T07:44:29.912Z,31.50
2017-12-31T07:45:29.919Z,26.50
2017-12-31T07:46:29.924Z,27.80
2017-12-31T07:47:29.924Z,32.60
2017-12-31T07:48:29.934Z,26.10
2017-12-31T07:49:29.937Z,34.50
2017-12-31T07:50:29.944Z,29.60
2017-12-31T07:51:29.946Z,26.40
2017-12-31T07:52:29.951Z,34.10
2017-12-31T07:53:29.956Z,25.70
2017-12-31T07:54:29.969Z,30.90
2017-12-31T07:55:29.972Z,28.50
2017-12-31T07:56:29.973Z,27.30
2017-12-31T07:57:29.982Z,27.80
2017-12-31T07:58:29.989Z,27.60
2017-12-31T07:59:29.987Z,29.80
2017-12-31T08:00:29.995Z,28.90
2017-12-31T08:01:30.006Z,30.00
2017-12-31T08:02:30.008Z,27.50
2017-12-31T08:03:30.008Z,28.10
2017-12-31T08:04:30.017Z,27.50
2017-12-31T08:05:30.023Z,25.60
2017-12-31T08:06:30.025Z,26.00
2017-12-31T08:07:30.035Z,29.20
2017-12-31T08:08:30.042Z,24.00
2017-12-31T08:09:30.048Z,22.70
2017-12-31T08:10:30.048Z,25.60
2017-12-31T08:11:30.050Z,31.40
2017-12-31T08:12:30.063Z,27.10
2017-12-31T08:13:30.062Z,27.70
2017-12-31T08:14:30.077Z,25.30
2017-12-31T08:15:30.962Z,21.50
2017-12-31T08:16:30.089Z,20.40
2017-12-31T08:17:30.084Z,21.60
2017-12-31T08:18:30.093Z,25.60
2017-12-31T08:19:30.094Z,23.70
2017-12-31T08:20:30.103Z,25.70
2017-12-31T08:21:30.113Z,21.60
2017-12-31T08:22:30.114Z,23.90
2017-12-31T08:23:30.121Z,24.20
2017-12-31T08:24:30.125Z,20.40
2017-12-31T08:25:30.130Z,21.10
2017-12-31T08:26:30.136Z,20.70
2017-12-31T08:27:30.141Z,23.60
2017-12-31T08:28:30.150Z,20.00
2017-12-31T08:29:30.152Z,21.80
2017-12-31T08:30:30.155Z,24.40
2017-12-31T08:31:30.165Z,23.20
2017-12-31T08:32:30.171Z,22.10
2017-12-31T08:33:30.170Z,21.90
2017-12-31T08:34:30.192Z,21.60
2017-12-31T08:35:30.184Z,24.70
2017-12-31T08:36:30.191Z,18.30
2017-12-31T08:37:30.221Z,20.80
2017-12-31T08:38:30.202Z,22.60
2017-12-31T08:39:30.206Z,22.40
2017-12-31T08:40:30.208Z,21.40
2017-12-31T08:41:30.220Z,26.00
2017-12-31T08:42:30.220Z,21.70
2017-12-31T08:43:30.220Z,20.80
2017-12-31T08:44:30.230Z,19.10
2017-12-31T08:45:30.235Z,23.00
2017-12-31T08:46:30.240Z,20.30
2017-12-31T08:47:30.252Z,22.00
2017-12-31T08:48:30.251Z,21.60
2017-12-31T08:49:30.253Z,23.40
2017-12-31T08:50:30.269Z,21.10
2017-12-31T08:51:30.269Z,22.80
2017-12-31T08:52:30.277Z,24.80
2017-12-31T08:53:30.278Z,24.10
2017-12-31T08:54:30.283Z,22.90
2017-12-31T08:55:30.289Z,19.90
2017-12-31T08:56:30.293Z,19.90
2017-12-31T08:57:30.299Z,18.80
2017-12-31T08:58:30.301Z,20.80
2017-12-31T08:59:30.308Z,21.70
2017-12-31T09:00:31.794Z,22.90
2017-12-31T09:01:31.705Z,21.50
2017-12-31T09:02:30.325Z,25.10
2017-12-31T09:03:30.333Z,21.10
2017-12-31T09:04:30.334Z,18.90
2017-12-31T09:05:30.352Z,19.30
2017-12-31T09:06:30.348Z,21.10
2017-12-31T09:07:30.354Z,18.60
2017-12-31T09:08:30.356Z,20.90
2017-12-31T09:09:30.360Z,19.60
2017-12-31T09:10:30.378Z,22.40
2017-12-31T09:11:30.976Z,19.10
2017-12-31T09:12:30.381Z,22.90
2017-12-31T09:13:30.386Z,17.40
2017-12-31T09:14:30.392Z,20.90
2017-12-31T09:15:30.394Z,21.50
2017-12-31T09:16:30.398Z,20.70
2017-12-31T09:17:30.405Z,20.10
2017-12-31T09:18:30.412Z,20.80
2017-12-31T09:19:30.416Z,23.00
2017-12-31T09:20:30.424Z,22.20
2017-12-31T09:21:30.425Z,20.10
2017-12-31T09:22:30.433Z,21.90
2017-12-31T09:23:30.438Z,17.80
2017-12-31T09:24:30.445Z,20.50
2017-12-31T09:25:30.448Z,17.50
2017-12-31T09:26:30.459Z,16.80
2017-12-31T09:27:30.460Z,16.40
2017-12-31T09:28:30.467Z,20.70
2017-12-31T09:29:30.470Z,29.60
2017-12-31T09:30:30.481Z,20.20
2017-12-31T09:31:30.483Z,21.80
2017-12-31T09:32:30.492Z,18.30
2017-12-31T09:33:30.492Z,22.20
2017-12-31T09:34:30.499Z,20.10
2017-12-31T09:35:30.507Z,18.80
2017-12-31T09:36:30.512Z,18.60
2017-12-31T09:37:30.516Z,18.70
2017-12-31T09:38:30.525Z,19.70
2017-12-31T09:39:30.532Z,20.60
2017-12-31T09:40:30.540Z,14.20
2017-12-31T09:41:30.536Z,13.60
2017-12-31T09:42:30.544Z,16.10
2017-12-31T09:43:30.554Z,16.10
2017-12-31T09:44:30.556Z,14.90
2017-12-31T09:45:30.558Z,18.90
2017-12-31T09:46:30.563Z,15.60
2017-12-31T09:47:30.575Z,16.00
2017-12-31T09:48:30.581Z,14.20
2017-12-31T09:49:30.582Z,13.70
2017-12-31T09:50:30.587Z,17.20
2017-12-31T09:51:30.597Z,15.90
2017-12-31T09:52:30.604Z,14.80
2017-12-31T09:53:30.604Z,18.50
2017-12-31T09:54:30.610Z,15.30
2017-12-31T09:55:30.623Z,16.20
2017-12-31T09:56:30.635Z,12.70
2017-12-31T09:57:30.628Z,14.60
2017-12-31T09:58:30.641Z,17.30
2017-12-31T09:59:30.648Z,15.00
2017-12-31T10:00:30.647Z,14.90
2017-12-31T10:01:30.653Z,20.20
2017-12-31T10:02:30.658Z,15.80
2017-12-31T10:03:30.668Z,21.00
2017-12-31T10:04:30.674Z,15.70
2017-12-31T10:05:30.674Z,16.10
2017-12-31T10:06:30.705Z,17.70
2017-12-31T10:07:30.694Z,14.80
2017-12-31T10:08:30.690Z,17.60
2017-12-31T10:09:30.703Z,12.50
2017-12-31T10:10:30.703Z,16.50
2017-12-31T10:11:30.715Z,13.80
2017-12-31T10:12:30.712Z,16.80
2017-12-31T10:13:30.723Z,18.50
2017-12-31T10:14:30.729Z,14.80
2017-12-31T10:15:30.736Z,18.00
2017-12-31T10:16:30.734Z,15.20
2017-12-31T10:17:30.748Z,14.80
2017-12-31T10:18:30.748Z,17.00
2017-12-31T10:19:30.757Z,15.60
2017-12-31T10:20:30.760Z,14.90
2017-12-31T10:21:30.774Z,17.00
2017-12-31T10:22:30.773Z,14.50
2017-12-31T10:23:30.779Z,14.20
2017-12-31T10:24:30.786Z,15.50
2017-12-31T10:25:30.796Z,15.00
2017-12-31T10:26:30.802Z,15.30
2017-12-31T10:27:30.802Z,17.10
2017-12-31T10:28:30.815Z,16.30
2017-12-31T10:29:30.812Z,15.30
2017-12-31T10:30:30.820Z,11.80
2017-12-31T10:31:30.825Z,14.10
2017-12-31T10:32:30.835Z,19.20
2017-12-31T10:33:30.834Z,15.90
2017-12-31T10:34:30.845Z,14.80
2017-12-31T10:35:30.853Z,16.00
2017-12-31T10:36:30.852Z,14.10
2017-12-31T10:37:30.857Z,15.60
2017-12-31T10:38:30.867Z,17.70
2017-12-31T10:39:30.869Z,13.90
2017-12-31T10:40:30.873Z,15.90
2017-12-31T10:41:30.884Z,11.90
2017-12-31T10:42:30.890Z,15.10
2017-12-31T10:43:30.902Z,13.70
2017-12-31T10:44:30.897Z,13.30
2017-12-31T10:45:30.917Z,13.40
2017-12-31T10:46:30.913Z,13.90
2017-12-31T10:47:30.919Z,16.20
2017-12-31T10:48:30.927Z,11.90
2017-12-31T10:49:30.932Z,14.60
2017-12-31T10:50:30.934Z,12.70
2017-12-31T10:51:32.011Z,11.70
2017-12-31T10:52:30.951Z,12.50
2017-12-31T10:53:30.952Z,15.10
2017-12-31T10:54:30.966Z,13.80
2017-12-31T10:55:30.964Z,17.80
2017-12-31T10:56:31.509Z,14.30
2017-12-31T10:57:30.982Z,13.90
2017-12-31T10:58:30.987Z,14.00
2017-12-31T10:59:30.995Z,12.40
2017-12-31T11:00:30.998Z,10.90
2017-12-31T11:01:31.007Z,13.10
2017-12-31T11:02:31.008Z,13.40
2017-12-31T11:03:37.857Z,15.50
2017-12-31T11:04:31.021Z,13.30
2017-12-31T11:05:31.028Z,12.50
2017-12-31T11:06:31.035Z,11.20
2017-12-31T11:07:31.043Z,13.40
2017-12-31T11:08:31.048Z,13.50
2017-12-31T11:09:31.057Z,11.80
2017-12-31T11:10:31.062Z,13.40
2017-12-31T11:11:31.068Z,11.40
2017-12-31T11:12:31.084Z,12.10
2017-12-31T11:13:31.085Z,11.50
2017-12-31T11:14:31.088Z,12.20
2017-12-31T11:15:31.098Z,9.60
2017-12-31T11:16:31.102Z,14.00
2017-12-31T11:17:31.110Z,11.90
2017-12-31T11:18:31.123Z,9.20
2017-12-31T11:19:31.120Z,11.30
2017-12-31T11:20:31.132Z,14.20
2017-12-31T11:21:31.143Z,15.40
2017-12-31T11:22:31.146Z,12.40
2017-12-31T11:23:31.153Z,10.80
2017-12-31T11:24:31.157Z,13.70
2017-12-31T11:25:31.160Z,12.30
2017-12-31T11:26:31.173Z,11.10
2017-12-31T11:27:31.174Z,13.30
2017-12-31T11:28:31.185Z,13.70
2017-12-31T11:29:31.188Z,13.70
2017-12-31T11:30:31.199Z,11.00
2017-12-31T11:31:31.200Z,12.10
2017-12-31T11:32:31.210Z,11.70
2017-12-31T11:33:31.214Z,10.70
2017-12-31T11:34:31.224Z,10.70
2017-12-31T11:35:31.226Z,9.90
2017-12-31T11:36:31.237Z,8.50
2017-12-31T11:37:31.241Z,10.50
2017-12-31T11:38:31.251Z,13.00
2017-12-31T11:39:31.257Z,11.20
2017-12-31T11:40:31.261Z,10.20
2017-12-31T11:41:31.271Z,14.20
2017-12-31T11:42:31.275Z,11.30
2017-12-31T11:43:31.280Z,12.60
2017-12-31T11:44:31.285Z,10.70
2017-12-31T11:45:31.294Z,11.30
2017-12-31T11:46:31.346Z,12.30
2017-12-31T11:47:31.318Z,8.20
2017-12-31T11:48:31.311Z,10.30
2017-12-31T11:49:31.323Z,11.80
2017-12-31T11:50:31.327Z,11.80
2017-12-31T11:51:31.335Z,14.60
2017-12-31T11:52:31.346Z,11.10
2017-12-31T11:53:31.343Z,10.20
2017-12-31T11:54:31.373Z,9.60
2017-12-31T11:55:31.362Z,11.70
2017-12-31T11:56:31.363Z,10.40
2017-12-31T11:57:31.370Z,10.70
2017-12-31T11:58:31.381Z,11.30
2017-12-31T11:59:31.389Z,10.40
2017-12-31T12:00:31.390Z,9.50
2017-12-31T12:01:31.403Z,11.90
2017-12-31T12:02:31.411Z,9.30
2017-12-31T12:03:31.412Z,11.10
2017-12-31T12:04:31.421Z,9.70
2017-12-31T12:05:31.430Z,8.70
2017-12-31T12:06:31.435Z,10.60
2017-12-31T12:07:31.443Z,7.20
2017-12-31T12:08:31.445Z,11.40
2017-12-31T12:09:31.452Z,10.80
2017-12-31T12:10:31.465Z,11.50
2017-12-31T12:11:31.471Z,10.60
2017-12-31T12:12:31.478Z,9.00
2017-12-31T12:13:31.485Z,10.30
2017-12-31T12:14:31.488Z,10.10
2017-12-31T12:15:31.500Z,10.10
2017-12-31T12:16:31.505Z,10.60
2017-12-31T12:17:31.516Z,9.50
2017-12-31T12:18:31.538Z,9.10
2017-12-31T12:19:31.526Z,10.20
2017-12-31T12:20:31.529Z,10.70
2017-12-31T12:21:31.542Z,11.50
2017-12-31T12:22:31.545Z,9.70
2017-12-31T12:23:31.554Z,10.20
2017-12-31T12:24:31.559Z,10.10
2017-12-31T12:25:31.565Z,11.40
2017-12-31T12:26:31.571Z,10.90
2017-12-31T12:27:31.582Z,8.80
2017-12-31T12:28:31.583Z,8.80
2017-12-31T12:29:31.595Z,9.60
2017-12-31T12:30:31.603Z,9.60
2017-12-31T12:31:31.610Z,9.50
2017-12-31T12:32:31.614Z,10.80
2017-12-31T12:33:31.623Z,8.20
2017-12-31T12:34:31.627Z,10.30
2017-12-31T12:35:31.637Z,9.70
2017-12-31T12:36:31.641Z,8.40
2017-12-31T12:37:31.650Z,8.60
2017-12-31T12:38:31.649Z,13.10
2017-12-31T12:39:31.675Z,8.30
2017-12-31T12:40:31.672Z,7.70
2017-12-31T12:41:31.678Z,10.00
2017-12-31T12:42:31.682Z,9.20
2017-12-31T12:43:31.691Z,12.00
2017-12-31T12:44:31.692Z,6.90
2017-12-31T12:45:31.721Z,11.80
2017-12-31T12:46:31.711Z,8.30
2017-12-31T12:47:31.718Z,9.40
2017-12-31T12:48:31.749Z,7.70
2017-12-31T12:49:31.729Z,13.50
2017-12-31T12:50:31.737Z,8.70
2017-12-31T12:51:31.751Z,8.90
2017-12-31T12:52:31.755Z,8.90
2017-12-31T12:53:31.768Z,11.50